Rechercher aéroport 
image banner adimage banner adimage banner ad
image banner ad

KPTV - Porterville Muni

Situé à Porterville, United States

ICAO - PTV, IATA -

Données fournies par Airmate  

Information générale

Coordonnées: N36°1'46" W119°3'46"
Élévation : 443 feet MSL.
Variation magnétique : 15° East
Voir autres Aéroports à California

Données opérationnelles

Special qualification required
Heure actuelle UTC:
Heure actuelle locale:
Météo
METAR: KPTV 251456Z AUTO 19006KT 10SM CLR 26/06 A2992 RMK AO2 SLP128 T02610061 51010
Voir NOTAMs / SUP AIP / TFR affectant cet aéroport [VIEW]
Fréquences de communication: [VIEW]

Pistes:

Identifiant RWYQFULongueur (ft)Largeur (ft)SurfaceLDA (ft)
12135°5960150ASPH
30315°5960150ASPH

Coordonnées de l'aéroport

Adresse: Porterville United States

Vue satellite de KPTV